createdAt,value
2019-03-05T00:07:47.838Z,57.11
2019-03-05T00:23:20.816Z,58.73
2019-03-05T00:39:20.729Z,60.43
2019-03-05T00:55:04.262Z,60.09
2019-03-05T01:10:37.522Z,60.05
2019-03-05T01:26:10.927Z,59.16
2019-03-05T01:41:44.178Z,62.70
2019-03-05T01:57:17.308Z,66.35
2019-03-05T02:12:50.623Z,65.14
2019-03-05T02:28:38.268Z,65.20
2019-03-05T02:44:16.339Z,67.82
2019-03-05T02:59:49.476Z,68.47
2019-03-05T03:15:23.371Z,64.77
2019-03-05T03:30:56.600Z,67.26
2019-03-05T03:46:29.876Z,66.23
2019-03-05T04:02:03.658Z,66.80
2019-03-05T04:17:37.182Z,72.20
2019-03-05T04:33:10.489Z,73.09
2019-03-05T04:48:43.605Z,74.91
2019-03-05T05:04:17.211Z,74.27
2019-03-05T05:19:50.378Z,70.20
2019-03-05T05:35:23.756Z,61.81
2019-03-05T05:50:56.953Z,58.48
2019-03-05T06:06:30.281Z,58.76
2019-03-05T06:22:03.520Z,52.23
2019-03-05T06:37:36.957Z,44.31
2019-03-05T06:53:10.377Z,39.49
2019-03-05T07:08:43.506Z,37.91
2019-03-05T07:24:31.590Z,35.82
2019-03-05T07:40:04.545Z,35.03
2019-03-05T07:55:37.536Z,34.07
2019-03-05T08:11:10.915Z,35.56
2019-03-05T08:26:44.097Z,37.09
2019-03-05T08:42:17.180Z,30.85
2019-03-05T08:57:50.203Z,29.67
2019-03-05T09:13:32.327Z,29.66
2019-03-05T09:28:58.848Z,26.59
2019-03-05T09:44:32.190Z,25.38
2019-03-05T10:00:05.517Z,27.13
2019-03-05T10:15:39.295Z,26.40
2019-03-05T10:31:13.699Z,25.15
2019-03-05T10:46:46.509Z,25.47
2019-03-05T11:02:19.497Z,30.76
2019-03-05T11:17:52.510Z,29.55
2019-03-05T11:33:25.499Z,29.80
2019-03-05T11:48:59.261Z,31.24
2019-03-05T12:04:32.913Z,31.76
2019-03-05T12:20:05.982Z,36.67
2019-03-05T12:35:39.285Z,35.83
2019-03-05T12:51:13.204Z,35.21
2019-03-05T13:06:46.067Z,35.21
2019-03-05T13:22:19.258Z,38.01
2019-03-05T13:37:52.429Z,38.24
2019-03-05T13:53:59.980Z,39.75
2019-03-05T14:09:30.082Z,40.35
2019-03-05T14:25:03.198Z,41.17
2019-03-05T14:40:43.598Z,42.09
2019-03-05T14:56:16.328Z,44.81
2019-03-05T15:11:49.548Z,45.73
2019-03-05T15:27:22.742Z,49.98
2019-03-05T15:42:55.979Z,50.40
2019-03-05T15:58:28.922Z,51.09
2019-03-05T16:14:02.050Z,48.62
2019-03-05T16:29:35.596Z,50.23
2019-03-05T16:45:30.013Z,51.99
2019-03-05T17:01:16.143Z,53.92
2019-03-05T17:16:49.692Z,56.54
2019-03-05T17:32:22.834Z,57.27
2019-03-05T17:47:55.717Z,59.47
2019-03-05T18:03:28.646Z,60.60
2019-03-05T18:19:01.619Z,64.01
2019-03-05T18:34:34.995Z,65.91
2019-03-05T18:50:08.271Z,65.66
2019-03-05T19:05:41.570Z,65.78
2019-03-05T19:21:14.658Z,67.04
2019-03-05T19:36:47.807Z,67.28
2019-03-05T19:52:20.631Z,68.05
2019-03-05T20:07:54.084Z,68.55
2019-03-05T20:23:26.963Z,69.48
2019-03-05T20:39:00.035Z,75.34
2019-03-05T20:54:34.890Z,85.38
2019-03-05T21:10:07.764Z,94.89
2019-03-05T21:25:41.821Z,100.00
2019-03-05T21:41:14.748Z,100.00
2019-03-05T21:56:48.249Z,100.00
2019-03-05T22:12:22.210Z,100.00
2019-03-05T22:27:55.032Z,100.00
2019-03-05T22:43:27.914Z,100.00
2019-03-05T22:59:01.083Z,100.00
2019-03-05T23:14:34.143Z,100.00
2019-03-05T23:30:07.086Z,100.00
2019-03-05T23:45:41.173Z,100.00
